Jamestown Regional Airport
KJMS : now visible

Airfield :











YOU CAN JOIN US ON...

 
LOGIN :

Register | Disclaimer

   EN    FR    IT 

 









Legend :    VFR   Marginal VFR   IFR   Intensive IFR   Very Intensive IFR
Visi :
Ceiling :
>= 8 km
>= 3000ft
5 to 8 km
1000 to 3000 ft
1500m to 5 km
500 to 1000 ft
800 to 1500m
200 to 500 ft
< 800m
< 200 ft
Symbols :   Thunderstorms  Fog  Heavy snow  Heavy precipitations  Wind > 20 kt






- Airport Elevation : 1500 ft
- IATA code : JMS


KJMS - Jamestown Regional

CURRENT METAR :
  • 182056Z AUTO 35021G31KT 10SM OVC022 01/M04 A3005 RMK AO2 PK WND 35031/2045 SLP188 60000 T00111044 51022

EXPIRED METARs :
  • 182015Z AUTO 36020KT 10SM OVC016 01/M03 A3004 RMK AO2 PK WND 35028/2005 T00061033
  • 181956Z AUTO 35021G28KT 10SM OVC015 01/M03 A3003 RMK AO2 PK WND 35032/1922 SLP184 T00061028
  • 181856Z AUTO 36018G29KT 10SM OVC013 01/M02 A3000 RMK AO2 PK WND 35033/1830 SNE1759 SLP175 P0000 T00111017

TAF KJMS
Valid from the 18 at 18:00 until the 19 at 18:00 UTC


181727Z 1818/1918 36022G30KT 1 1/2SM -SN BR SCT008 OVC015
FM181900 36021G28KT 4SM -SN OVC015
FM182200 36018G26KT P6SM OVC020
FM190100 36013G21KT P6SM BKN035
KZMP FIR / North America



MET'MAP, your aeronautical weather chart ! - Copyright ORBIFLY December 2007 - Disclaimer

ORBIFLY MET'MAP TEAM :

Programming & Development : Alexandra Zaïnal
Concept & original design : Baudouin d'Aumeries
Assistance for programming : Marc-Olivier Méhu
Technical & hardware support : Manuel Goepfert

Contact : metmap@orbifly.com




SOURCES & CREDITS :

   NOAA       Earth
Advisory